Time;durP1;ratioP1;P1;durP2;ratioP2;P2;SDS_P1;SDS_P2;PMS_P1;PMS_P2;Temp;Humidity;BMP_temperature;BMP_pressure;BME280_temperature;BME280_humidity;BME280_pressure;Samples;Min_cycle;Max_cycle;Signal;HPM_P1;HPM_P2
2023/09/05 00:00:44;;;;;;;6.00;4.00;;;;;;;18.85;100.00;101881.22;5194108;28;20097;-72
2023/09/05 00:03:18;;;;;;;9.40;4.93;;;;;;;18.80;100.00;101880.75;5190793;28;20029;-73
2023/09/05 00:05:59;;;;;;;5.78;3.45;;;;;;;18.90;100.00;101880.88;5182683;28;20061;-72
2023/09/05 00:08:31;;;;;;;8.40;4.30;;;;;;;18.91;100.00;101876.41;5193049;28;20042;-73
2023/09/05 00:11:02;;;;;;;6.77;3.97;;;;;;;18.88;100.00;101882.81;5189357;28;20035;-72
2023/09/05 00:13:34;;;;;;;7.10;5.20;;;;;;;18.86;100.00;101868.81;5173964;28;20058;-72
2023/09/05 00:16:05;;;;;;;5.80;4.43;;;;;;;18.87;100.00;101865.19;5185112;28;20034;-72
2023/09/05 00:18:36;;;;;;;8.17;4.57;;;;;;;18.78;100.00;101868.56;5192400;28;20433;-72
2023/09/05 00:21:08;;;;;;;7.23;4.47;;;;;;;18.71;100.00;101858.44;5193328;28;20038;-72
2023/09/05 00:23:40;;;;;;;5.80;4.20;;;;;;;18.59;100.00;101873.50;5193039;28;20029;-72
2023/09/05 00:26:11;;;;;;;8.33;3.73;;;;;;;18.59;100.00;101865.56;5193035;28;20044;-72
2023/09/05 00:28:43;;;;;;;6.07;4.00;;;;;;;18.58;100.00;101874.47;5193219;28;20554;-72
2023/09/05 00:31:14;;;;;;;5.33;4.10;;;;;;;18.48;100.00;101876.16;5192800;28;20042;-72
2023/09/05 00:33:47;;;;;;;8.97;4.27;;;;;;;18.36;100.00;101868.19;5192564;28;20030;-72
2023/09/05 00:36:19;;;;;;;5.47;4.57;;;;;;;18.25;100.00;101874.31;5192752;28;20110;-72
2023/09/05 00:38:50;;;;;;;6.20;4.73;;;;;;;18.40;100.00;101871.44;5190843;28;20046;-72
2023/09/05 00:41:21;;;;;;;7.17;4.60;;;;;;;18.33;100.00;101860.47;5192650;28;20117;-73
2023/09/05 00:43:53;;;;;;;6.47;5.17;;;;;;;18.68;100.00;101876.41;5205907;28;20389;-73
2023/09/05 00:46:24;;;;;;;6.17;4.63;;;;;;;18.25;100.00;101870.81;5183659;28;20094;-72
2023/09/05 00:48:57;;;;;;;7.83;5.50;;;;;;;18.24;100.00;101874.41;5172198;28;20063;-72
2023/09/05 00:51:32;;;;;;;6.70;4.87;;;;;;;18.46;100.00;101881.59;5188011;28;20036;-72
2023/09/05 00:54:05;;;;;;;6.40;4.90;;;;;;;18.27;100.00;101874.22;5191358;28;20084;-72
2023/09/05 00:56:37;;;;;;;5.25;4.75;;;;;;;18.26;100.00;101872.50;5193238;28;20109;-72
2023/09/05 00:59:09;;;;;;;5.50;5.00;;;;;;;18.32;100.00;101871.19;5191080;28;20129;-72
2023/09/05 01:01:40;;;;;;;7.60;5.10;;;;;;;18.36;100.00;101873.47;5172474;28;20105;-72
2023/09/05 01:04:13;;;;;;;7.00;5.47;;;;;;;18.38;100.00;101876.00;5179760;28;20154;-73
2023/09/05 01:07:00;;;;;;;9.10;5.33;;;;;;;18.31;100.00;101870.34;5192542;28;20049;-72
2023/09/05 01:09:56;;;;;;;7.63;5.50;;;;;;;18.50;100.00;101880.38;5192591;28;20104;-72
2023/09/05 01:12:31;;;;;;;10.40;5.80;;;;;;;18.07;100.00;101865.06;5206284;22;20085;-76
2023/09/05 01:15:10;;;;;;;;;;;;;;;18.90;100.00;101877.38;5193215;28;20021;-75
2023/09/05 01:17:54;;;;;;;5.70;5.13;;;;;;;18.18;100.00;101828.03;5212653;28;20250;-76
2023/09/05 01:20:39;;;;;;;7.03;5.47;;;;;;;18.35;100.00;101866.50;5194391;28;20027;-75
2023/09/05 01:23:19;;;;;;;8.17;4.93;;;;;;;18.34;100.00;101838.31;5193474;28;20025;-76
2023/09/05 01:25:51;;;;;;;7.37;5.20;;;;;;;18.13;100.00;101831.00;5192002;28;20030;-75
2023/09/05 01:28:24;;;;;;;6.43;5.50;;;;;;;18.09;100.00;101844.59;5188472;28;20026;-76
2023/09/05 01:30:56;;;;;;;6.73;5.40;;;;;;;17.90;100.00;101859.25;5205014;28;20026;-75
2023/09/05 01:33:27;;;;;;;8.90;6.03;;;;;;;17.95;100.00;101824.44;5195163;28;20556;-75
2023/09/05 01:35:58;;;;;;;7.63;6.37;;;;;;;18.20;100.00;101868.53;5172717;28;20038;-75
2023/09/05 01:38:30;;;;;;;8.40;6.37;;;;;;;17.88;100.00;101861.16;5172654;28;20034;-77
2023/09/05 01:41:20;;;;;;;9.27;5.77;;;;;;;17.99;100.00;101840.03;5172761;28;20039;-77
2023/09/05 01:43:51;;;;;;;6.87;5.57;;;;;;;17.89;100.00;101882.25;5171487;28;20066;-77
2023/09/05 01:46:23;;;;;;;8.93;6.47;;;;;;;17.74;100.00;101847.16;5174496;28;20062;-77
2023/09/05 01:48:54;;;;;;;11.50;6.00;;;;;;;17.66;100.00;101845.06;5171760;28;20026;-75
2023/09/05 01:51:25;;;;;;;7.20;6.13;;;;;;;17.65;100.00;101847.84;5171921;28;20042;-76
2023/09/05 01:53:57;;;;;;;8.27;6.30;;;;;;;17.72;100.00;101850.88;5192575;28;20497;-75
2023/09/05 01:56:29;;;;;;;8.40;5.87;;;;;;;17.39;100.00;101827.63;5184231;28;20089;-76
2023/09/05 01:59:00;;;;;;;9.90;6.53;;;;;;;17.56;100.00;101838.75;5172034;28;20077;-76
2023/09/05 02:01:35;;;;;;;8.57;6.20;;;;;;;17.42;100.00;101832.69;5172610;28;20030;-76
2023/09/05 02:04:06;;;;;;;8.13;6.67;;;;;;;17.61;100.00;101868.41;5170965;28;20678;-76
2023/09/05 02:06:38;;;;;;;7.07;5.70;;;;;;;17.46;100.00;101840.41;5172180;28;20035;-77
2023/09/05 02:09:09;;;;;;;8.43;5.77;;;;;;;17.58;100.00;101855.41;5171538;28;20030;-75
2023/09/05 02:11:40;;;;;;;7.27;6.00;;;;;;;17.34;100.00;101840.38;5172270;28;20442;-76
2023/09/05 02:14:12;;;;;;;8.13;6.50;;;;;;;17.34;100.00;101853.59;5190375;28;20071;-76
2023/09/05 02:16:43;;;;;;;6.67;5.50;;;;;;;17.36;100.00;101832.31;5186454;28;20019;-77
2023/09/05 02:19:15;;;;;;;9.07;6.13;;;;;;;17.55;100.00;101847.69;5171318;28;20394;-76
2023/09/05 02:21:48;;;;;;;5.87;5.10;;;;;;;17.52;100.00;101847.91;5171821;28;20030;-75
2023/09/05 02:24:20;;;;;;;7.95;5.63;;;;;;;17.53;100.00;101844.28;5172288;28;20833;-75
2023/09/05 02:26:53;;;;;;;8.10;5.90;;;;;;;17.28;100.00;101819.63;5172386;28;20037;-76
2023/09/05 02:29:44;;;;;;;7.03;5.40;;;;;;;17.24;100.00;101802.28;5182568;28;20027;-76
2023/09/05 02:32:18;;;;;;;7.13;6.03;;;;;;;17.01;100.00;101808.28;5190729;28;20405;-78
2023/09/05 02:34:52;;;;;;;8.75;5.35;;;;;;;17.35;100.00;101809.44;5192588;28;20026;-77
2023/09/05 02:37:47;;;;;;;6.40;4.87;;;;;;;17.53;100.00;101820.47;5192405;28;20106;-76
2023/09/05 02:40:22;;;;;;;6.73;4.77;;;;;;;17.35;100.00;101820.84;5206936;28;20288;-77
2023/09/05 02:43:42;;;;;;;10.40;5.53;;;;;;;17.93;100.00;101876.72;5195089;28;20053;-77
2023/09/05 02:46:14;;;;;;;11.67;5.73;;;;;;;17.24;100.00;101845.50;5186868;28;20126;-75
2023/09/05 02:48:45;;;;;;;8.67;5.10;;;;;;;17.23;100.00;101848.22;5195199;28;20049;-75
2023/09/05 02:51:24;;;;;;;10.23;6.07;;;;;;;17.37;100.00;101840.13;5188214;28;20403;-75
2023/09/05 02:53:56;;;;;;;8.57;5.17;;;;;;;17.42;100.00;101840.63;5174725;28;20045;-76
2023/09/05 02:56:28;;;;;;;6.23;5.30;;;;;;;17.37;100.00;101840.13;5175685;28;20085;-76
2023/09/05 02:58:59;;;;;;;6.87;4.97;;;;;;;17.08;100.00;101824.53;5175571;28;20027;-75
2023/09/05 03:01:30;;;;;;;8.33;5.00;;;;;;;17.22;100.00;101826.22;5175037;28;20431;-76
2023/09/05 03:04:02;;;;;;;7.57;5.13;;;;;;;17.11;100.00;101834.09;5186808;28;20030;-76
2023/09/05 03:06:33;;;;;;;9.50;5.83;;;;;;;17.30;100.00;101807.13;5195836;28;20026;-77
2023/09/05 03:09:05;;;;;;;6.97;5.40;;;;;;;17.20;100.00;101840.50;5210575;28;20433;-76
2023/09/05 03:11:39;;;;;;;6.80;5.07;;;;;;;17.01;100.00;101842.66;5196577;28;20031;-76
2023/09/05 03:14:10;;;;;;;6.78;5.22;;;;;;;17.02;100.00;101822.31;5176785;28;20059;-77
2023/09/05 03:16:41;;;;;;;9.17;5.57;;;;;;;16.90;100.00;101829.34;5189365;28;20116;-76
2023/09/05 03:19:14;;;;;;;8.13;5.63;;;;;;;17.11;100.00;101845.53;5184666;28;20105;-76
2023/09/05 03:21:45;;;;;;;6.17;4.80;;;;;;;16.83;100.00;101826.28;5194305;28;20038;-76
2023/09/05 03:24:18;;;;;;;6.40;5.10;;;;;;;17.10;100.00;101814.72;5177442;28;20351;-76
2023/09/05 03:26:49;;;;;;;7.63;5.27;;;;;;;16.79;100.00;101838.88;5175504;28;20640;-77
2023/09/05 03:29:21;;;;;;;5.10;4.60;;;;;;;16.85;100.00;101823.53;5175236;28;20015;-75
2023/09/05 03:31:52;;;;;;;7.83;5.43;;;;;;;16.68;100.00;101822.94;5173610;28;20326;-76
2023/09/05 03:34:24;;;;;;;5.70;5.10;;;;;;;17.03;100.00;101837.25;5191399;28;20027;-76
2023/09/05 03:36:55;;;;;;;5.33;4.40;;;;;;;16.87;100.00;101811.91;5195636;28;20470;-76
2023/09/05 03:39:27;;;;;;;6.93;4.70;;;;;;;16.73;100.00;101815.53;5210055;28;20113;-76
2023/09/05 03:41:58;;;;;;;12.00;5.17;;;;;;;16.74;100.00;101798.69;5194145;28;20058;-76
2023/09/05 03:44:29;;;;;;;6.47;4.87;;;;;;;16.64;100.00;101813.53;5195006;28;20033;-76
2023/09/05 03:47:01;;;;;;;5.77;5.10;;;;;;;16.73;100.00;101812.03;5193902;28;20019;-76
2023/09/05 03:49:32;;;;;;;7.10;5.07;;;;;;;16.64;100.00;101817.03;5195736;28;20089;-75
2023/09/05 03:52:04;;;;;;;7.77;5.20;;;;;;;16.66;100.00;101812.47;5195319;28;20453;-76
2023/09/05 03:54:37;;;;;;;7.03;4.70;;;;;;;16.75;100.00;101840.06;5193899;28;20374;-75
2023/09/05 03:57:11;;;;;;;7.00;5.17;;;;;;;16.69;100.00;101819.34;5175614;28;20030;-75
2023/09/05 03:59:42;;;;;;;6.53;5.22;;;;;;;16.64;100.00;101816.16;5174963;28;20027;-75
2023/09/05 04:02:13;;;;;;;6.93;4.80;;;;;;;16.56;100.00;101817.56;5189475;28;20037;-75
2023/09/05 04:04:45;;;;;;;5.93;4.50;;;;;;;16.45;100.00;101794.53;5174548;28;20038;-74
2023/09/05 04:07:21;;;;;;;8.50;4.40;;;;;;;16.59;100.00;101811.22;5189613;28;20059;-74
2023/09/05 04:09:53;;;;;;;5.63;4.80;;;;;;;16.50;100.00;101802.13;5189231;28;20053;-75
2023/09/05 04:12:24;;;;;;;7.13;4.93;;;;;;;16.56;100.00;101803.50;5189363;28;20038;-75
2023/09/05 04:14:55;;;;;;;5.57;4.50;;;;;;;16.60;100.00;101836.69;5174952;28;20046;-75
2023/09/05 04:17:29;;;;;;;7.97;4.77;;;;;;;16.36;100.00;101787.22;5174156;28;20026;-76
2023/09/05 04:20:01;;;;;;;7.40;4.80;;;;;;;16.52;100.00;101809.94;5173637;28;20033;-76
2023/09/05 04:22:32;;;;;;;8.00;5.17;;;;;;;16.50;100.00;101820.63;5177367;28;20479;-76
2023/09/05 04:25:07;;;;;;;7.57;4.67;;;;;;;16.27;100.00;101778.13;5175997;28;20109;-75
2023/09/05 04:27:39;;;;;;;5.30;4.43;;;;;;;16.19;100.00;101760.19;5180517;28;20030;-76
2023/09/05 04:30:12;;;;;;;7.67;4.57;;;;;;;16.26;100.00;101800.25;5181591;28;20614;-75
2023/09/05 04:32:44;;;;;;;7.07;4.90;;;;;;;16.42;100.00;101821.16;5179727;28;20109;-75
2023/09/05 04:35:18;;;;;;;6.70;4.67;;;;;;;16.40;100.00;101809.88;5183265;28;20023;-76
2023/09/05 04:37:52;;;;;;;5.90;4.50;;;;;;;16.48;100.00;101798.75;5184112;28;20025;-74
2023/09/05 04:40:23;;;;;;;;;;;;;;;17.19;100.00;101812.38;5176428;28;20050;-75
2023/09/05 04:42:55;;;;;;;5.23;4.37;;;;;;;16.50;100.00;101794.19;5173955;28;19917;-75
2023/09/05 04:45:26;;;;;;;7.93;4.97;;;;;;;16.41;100.00;101779.81;5173205;28;20117;-75
2023/09/05 04:47:58;;;;;;;8.03;5.37;;;;;;;16.39;100.00;101780.91;5167166;28;20035;-75
2023/09/05 04:50:30;;;;;;;6.77;5.00;;;;;;;16.46;100.00;101792.72;5172540;28;20057;-76
2023/09/05 04:53:01;;;;;;;5.13;4.23;;;;;;;16.37;100.00;101786.25;5157459;28;20030;-75
2023/09/05 04:55:33;;;;;;;6.67;4.63;;;;;;;16.46;100.00;101803.28;5174594;28;20026;-75
2023/09/05 04:58:07;;;;;;;9.53;5.53;;;;;;;16.69;100.00;101801.69;5170373;28;20033;-76
2023/09/05 05:00:51;;;;;;;8.57;4.82;;;;;;;16.35;100.00;101761.75;5204416;28;20030;-75
2023/09/05 05:03:31;;;;;;;7.75;4.55;;;;;;;16.55;100.00;101783.28;5188170;28;20878;-75
2023/09/05 05:06:03;;;;;;;7.30;4.00;;;;;;;16.65;100.00;101808.13;5210210;28;20046;-76
2023/09/05 05:08:34;;;;;;;9.67;4.53;;;;;;;16.34;100.00;101775.91;5189142;28;20018;-75
2023/09/05 05:11:08;;;;;;;9.23;4.73;;;;;;;16.27;100.00;101764.06;5189699;28;20030;-75
2023/09/05 05:13:39;;;;;;;5.70;4.30;;;;;;;16.38;100.00;101774.75;5173484;28;20054;-75
2023/09/05 05:16:10;;;;;;;9.83;4.20;;;;;;;16.29;100.00;101778.03;5174829;28;20034;-75
2023/09/05 05:18:42;;;;;;;9.63;5.23;;;;;;;16.32;100.00;101775.16;5172523;28;20502;-75
2023/09/05 05:21:16;;;;;;;12.27;5.23;;;;;;;16.40;100.00;101779.94;5173074;28;20066;-75
2023/09/05 05:23:48;;;;;;;9.37;5.03;;;;;;;16.39;100.00;101788.81;5171380;28;20026;-75
2023/09/05 05:26:19;;;;;;;14.30;4.73;;;;;;;16.63;100.00;101820.63;5171439;28;20072;-76
2023/09/05 05:28:50;;;;;;;9.73;4.30;;;;;;;16.52;100.00;101807.31;5172720;28;20047;-75
2023/09/05 05:31:22;;;;;;;8.57;4.90;;;;;;;16.23;100.00;101783.75;5172179;28;20059;-76
2023/09/05 05:33:54;;;;;;;9.93;4.97;;;;;;;16.44;100.00;101811.31;5171530;28;20026;-75
2023/09/05 05:36:41;;;;;;;6.03;4.30;;;;;;;16.38;100.00;101780.03;5181094;28;20058;-78
2023/09/05 05:39:12;;;;;;;8.60;4.93;;;;;;;16.33;100.00;101811.25;5173349;28;20030;-78
2023/09/05 05:41:43;;;;;;;10.20;4.80;;;;;;;16.35;100.00;101801.41;5173340;28;20061;-76
2023/09/05 05:44:15;;;;;;;7.30;3.80;;;;;;;16.76;100.00;101825.88;5187762;28;20103;-77
2023/09/05 05:46:47;;;;;;;11.40;5.20;;;;;;;16.83;100.00;101826.28;5169783;28;20026;-77
2023/09/05 05:49:18;;;;;;;9.77;4.20;;;;;;;16.66;100.00;101804.53;5153339;28;20494;-78
2023/09/05 05:51:50;;;;;;;7.83;4.63;;;;;;;16.78;100.00;101823.13;5171125;28;20467;-78
2023/09/05 05:54:22;;;;;;;7.27;4.70;;;;;;;16.58;100.00;101820.13;5171064;28;20030;-77
2023/09/05 05:56:55;;;;;;;4.83;3.63;;;;;;;16.95;100.00;101835.16;5189318;28;20023;-76
2023/09/05 05:59:26;;;;;;;7.23;4.70;;;;;;;16.99;100.00;101835.78;5160953;28;20034;-77
2023/09/05 06:01:58;;;;;;;4.17;3.37;;;;;;;17.10;100.00;101816.53;5168437;28;20043;-77
2023/09/05 06:04:29;;;;;;;8.23;3.57;;;;;;;16.90;100.00;101808.19;5165738;28;20031;-78
2023/09/05 06:07:00;;;;;;;4.30;3.23;;;;;;;16.98;100.00;101789.13;5165917;28;20038;-77
2023/09/05 06:09:32;;;;;;;7.50;3.37;;;;;;;17.20;100.00;101819.34;5173922;28;20097;-77
2023/09/05 06:12:05;;;;;;;9.97;3.53;;;;;;;17.14;100.00;101813.53;5169449;28;20049;-75
2023/09/05 06:14:39;;;;;;;8.10;3.37;;;;;;;17.10;100.00;101782.97;5188014;28;20088;-76
2023/09/05 06:17:10;;;;;;;;;;;;;;;17.77;100.00;101832.81;5191268;28;20034;-75
2023/09/05 06:19:42;;;;;;;5.03;3.33;;;;;;;17.52;100.00;101832.84;5211742;28;19964;-76
2023/09/05 06:22:13;;;;;;;6.93;3.23;;;;;;;17.19;100.00;101765.56;5196390;28;20029;-75
2023/09/05 06:24:44;;;;;;;4.03;3.13;;;;;;;17.41;100.00;101796.59;5196226;28;20414;-75
2023/09/05 06:27:16;;;;;;;4.80;3.63;;;;;;;17.42;100.00;101787.69;5175650;28;20019;-76
2023/09/05 06:29:47;;;;;;;8.60;4.10;;;;;;;17.51;100.00;101783.50;5176094;28;20027;-75
2023/09/05 06:32:18;;;;;;;7.23;3.57;;;;;;;17.47;100.00;101779.38;5175492;28;20474;-76
2023/09/05 06:40:52;;;;;;;7.23;3.23;;;;;;;17.87;100.00;101835.66;5170590;28;20051;-72
2023/09/05 06:43:25;;;;;;;5.97;3.27;;;;;;;17.85;100.00;101825.16;5169521;28;20370;-72
2023/09/05 06:46:06;;;;;;;10.80;4.00;;;;;;;18.02;100.00;101833.63;5170351;28;20255;-72
2023/09/05 06:48:39;;;;;;;7.60;3.20;;;;;;;18.00;100.00;101830.25;5180313;28;20440;-72
2023/09/05 06:51:11;;;;;;;6.47;2.97;;;;;;;18.02;100.00;101833.63;5188280;28;20038;-72
2023/09/05 06:53:42;;;;;;;6.00;3.27;;;;;;;18.13;100.00;101830.16;5193443;28;20031;-72
2023/09/05 06:56:13;;;;;;;7.00;3.20;;;;;;;18.15;100.00;101828.28;5170273;28;20062;-72
2023/09/05 06:58:45;;;;;;;10.07;4.57;;;;;;;18.28;100.00;101822.00;5169865;28;20343;-72
2023/09/05 07:01:16;;;;;;;8.10;3.70;;;;;;;18.19;100.00;101813.81;5157600;28;20106;-72
2023/09/05 07:03:47;;;;;;;4.90;2.87;;;;;;;18.28;100.00;101824.66;5168701;28;20027;-73
2023/09/05 07:06:19;;;;;;;7.03;3.13;;;;;;;18.30;100.00;101820.94;5162388;28;20054;-73
2023/09/05 07:08:51;;;;;;;7.53;3.17;;;;;;;18.45;100.00;101815.41;5183419;28;20069;-73
2023/09/05 07:11:23;;;;;;;6.50;3.40;;;;;;;18.51;100.00;101822.88;5193617;28;20018;-71
2023/09/05 07:13:54;;;;;;;6.93;2.87;;;;;;;18.61;100.00;101807.91;5193394;28;20433;-71
2023/09/05 07:16:26;;;;;;;5.13;3.07;;;;;;;18.77;100.00;101819.97;5192818;28;20026;-70
2023/09/05 07:18:57;;;;;;;8.77;3.13;;;;;;;18.74;100.00;101812.25;5193632;28;20039;-71
2023/09/05 07:21:28;;;;;;;8.13;3.20;;;;;;;18.94;100.00;101801.81;5178192;28;20029;-71
2023/09/05 07:23:59;;;;;;;7.43;3.57;;;;;;;19.26;100.00;101795.75;5172957;28;20118;-71
2023/09/05 07:26:31;;;;;;;4.40;2.57;;;;;;;19.27;100.00;101800.06;5173252;28;20118;-72
2023/09/05 07:29:02;;;;;;;6.03;2.80;;;;;;;19.53;100.00;101806.88;5174320;28;20042;-71
2023/09/05 07:31:34;;;;;;;7.17;3.13;;;;;;;19.75;100.00;101807.72;5172389;28;20027;-71
2023/09/05 07:34:06;;;;;;;5.87;3.23;;;;;;;19.93;100.00;101806.16;5163202;28;20041;-73
2023/09/05 07:36:39;;;;;;;5.53;2.70;;;;;;;20.12;100.00;101806.44;5166559;28;20090;-72
2023/09/05 07:39:10;;;;;;;6.33;2.80;;;;;;;20.37;100.00;101791.03;5155763;28;20059;-78
2023/09/05 07:41:41;;;;;;;7.83;2.73;;;;;;;20.60;100.00;101801.44;5156582;28;20054;-71
2023/09/05 07:44:13;;;;;;;7.90;2.73;;;;;;;21.08;100.00;101796.41;5161952;28;20037;-71
2023/09/05 07:46:44;;;;;;;4.37;2.47;;;;;;;21.80;100.00;101795.28;5167631;28;20552;-70
2023/09/05 07:49:18;;;;;;;11.97;2.73;;;;;;;22.28;93.86;101795.28;5172754;28;20062;-70
2023/09/05 07:51:50;;;;;;;7.45;2.22;;;;;;;22.67;86.81;101791.63;5168977;28;20080;-69
2023/09/05 07:54:25;;;;;;;6.65;2.13;;;;;;;23.56;82.87;101804.34;5174561;28;20058;-69
2023/09/05 07:56:57;;;;;;;5.95;2.30;;;;;;;24.23;74.98;101804.78;5167736;28;20019;-71
2023/09/05 07:59:28;;;;;;;6.07;2.72;;;;;;;25.05;66.66;101816.78;5183314;28;20034;-71
2023/09/05 08:02:01;;;;;;;6.40;2.90;;;;;;;25.69;62.90;101814.50;5193692;28;20092;-69
2023/09/05 08:04:32;;;;;;;3.83;2.28;;;;;;;26.32;57.67;101816.50;5163551;28;20039;-70
2023/09/05 08:07:07;;;;;;;7.28;2.70;;;;;;;26.94;54.33;101824.78;5166466;28;20656;-70
2023/09/05 08:09:38;;;;;;;7.85;2.65;;;;;;;27.38;50.63;101822.47;5166769;28;20026;-71
2023/09/05 08:12:09;;;;;;;6.53;2.30;;;;;;;27.96;47.25;101821.13;5167988;28;20209;-71
2023/09/05 08:14:41;;;;;;;5.13;2.42;;;;;;;28.14;45.82;101820.72;5171961;28;20466;-71
2023/09/05 08:17:12;;;;;;;2.95;2.00;;;;;;;28.20;45.82;101814.63;5171057;28;20035;-71
2023/09/05 08:19:44;;;;;;;6.53;2.55;;;;;;;28.57;48.35;101816.53;5172650;28;20626;-71
2023/09/05 08:22:17;;;;;;;5.97;2.17;;;;;;;29.77;42.77;101823.28;5171791;28;20027;-71
2023/09/05 08:24:49;;;;;;;3.93;2.17;;;;;;;30.55;40.96;101820.56;5167249;28;20114;-71
2023/09/05 08:27:28;;;;;;;5.45;2.40;;;;;;;30.43;39.28;101818.44;5167247;28;20030;-71
2023/09/05 08:29:59;;;;;;;3.05;1.80;;;;;;;30.58;38.39;101812.03;5170499;28;20019;-71
2023/09/05 08:32:33;;;;;;;5.05;2.08;;;;;;;31.13;39.26;101826.53;5171143;28;20653;-71
2023/09/05 08:35:10;;;;;;;3.95;1.92;;;;;;;31.26;37.34;101823.00;5173166;28;20042;-71
2023/09/05 08:37:43;;;;;;;4.45;2.03;;;;;;;31.09;37.29;101820.69;5167318;28;20039;-72
2023/09/05 08:40:15;;;;;;;5.82;2.05;;;;;;;31.86;35.15;101814.00;5170495;28;20497;-72
2023/09/05 08:42:53;;;;;;;4.90;1.98;;;;;;;32.83;34.07;101808.78;5172354;28;20540;-72
2023/09/05 08:45:26;;;;;;;3.58;1.92;;;;;;;32.35;34.45;101810.94;5173036;28;20022;-72
2023/09/05 08:47:57;;;;;;;6.63;2.28;;;;;;;33.17;32.59;101822.13;5172208;28;20030;-72
2023/09/05 08:50:34;;;;;;;4.15;2.10;;;;;;;33.28;31.93;101815.16;5171839;28;20019;-72
2023/09/05 08:53:11;;;;;;;4.28;2.15;;;;;;;32.84;32.92;101817.75;5172815;28;20027;-72
2023/09/05 08:55:43;;;;;;;3.90;2.03;;;;;;;32.89;32.62;101817.94;5172556;28;20029;-72
2023/09/05 08:58:17;;;;;;;2.55;1.70;;;;;;;33.80;31.75;101816.78;5172803;28;20031;-72
2023/09/05 09:00:48;;;;;;;5.32;2.28;;;;;;;34.10;30.71;101814.34;5172549;28;20027;-72
2023/09/05 09:03:19;;;;;;;3.70;2.45;;;;;;;33.85;31.39;101820.69;5171841;28;20567;-72
2023/09/05 09:05:51;;;;;;;5.72;2.17;;;;;;;34.94;30.59;101820.97;5172384;28;20069;-72
2023/09/05 09:08:22;;;;;;;5.82;2.05;;;;;;;35.34;29.74;101818.66;5172439;28;20066;-72
2023/09/05 09:11:05;;;;;;;3.28;2.28;;;;;;;36.07;30.24;101822.94;5172481;28;20122;-72
2023/09/05 09:13:40;;;;;;;;;;;;;;;37.14;29.52;101827.06;5172590;28;20053;-72
2023/09/05 09:16:17;;;;;;;4.72;2.10;;;;;;;35.78;29.65;101828.34;5171188;28;20017;-72
2023/09/05 09:19:04;;;;;;;7.35;2.05;;;;;;;36.29;30.50;101834.03;5170412;28;20529;-72
2023/09/05 09:21:36;;;;;;;4.80;1.70;;;;;;;35.88;28.98;101833.19;5172571;28;20551;-73
2023/09/05 09:24:11;;;;;;;6.20;2.10;;;;;;;36.82;27.70;101826.81;5171730;28;20061;-72
2023/09/05 09:26:43;;;;;;;5.15;1.98;;;;;;;36.81;27.97;101831.47;5172607;28;20114;-72
2023/09/05 09:29:14;;;;;;;7.13;2.23;;;;;;;37.26;27.95;101828.91;5171838;28;20098;-72
2023/09/05 09:31:46;;;;;;;5.07;1.90;;;;;;;37.85;27.14;101841.22;5171209;28;20034;-72
2023/09/05 09:34:20;;;;;;;4.40;1.83;;;;;;;38.09;25.99;101840.09;5171500;28;20033;-72
2023/09/05 09:36:52;;;;;;;4.95;2.17;;;;;;;37.28;27.38;101838.47;5171004;28;20122;-72
2023/09/05 09:39:25;;;;;;;3.73;1.90;;;;;;;39.14;26.50;101836.44;5171946;28;20417;-73
2023/09/05 09:42:00;;;;;;;12.48;2.97;;;;;;;38.65;26.00;101843.69;5171398;28;20031;-72
2023/09/05 09:44:34;;;;;;;6.15;1.98;;;;;;;38.47;25.90;101843.00;5172260;28;20096;-73
2023/09/05 09:47:05;;;;;;;4.88;1.92;;;;;;;39.01;23.73;101841.31;5170516;28;20030;-73
2023/09/05 09:49:42;;;;;;;3.50;1.73;;;;;;;37.94;25.45;101843.47;5172040;28;20029;-73
2023/09/05 09:52:22;;;;;;;6.30;2.00;;;;;;;39.22;24.63;101841.50;5170387;28;20070;-72
2023/09/05 09:54:56;;;;;;;3.40;1.90;;;;;;;37.82;25.87;101849.09;5172131;28;20034;-73
2023/09/05 09:57:34;;;;;;;5.75;2.22;;;;;;;38.11;25.04;101832.47;5171163;28;20018;-72
2023/09/05 10:00:09;;;;;;;3.17;2.22;;;;;;;37.41;25.93;101839.22;5170450;28;20037;-72
2023/09/05 10:02:45;;;;;;;4.25;1.75;;;;;;;38.19;25.15;101844.88;5170395;28;20031;-73
2023/09/05 10:05:17;;;;;;;4.95;1.80;;;;;;;37.65;25.39;101839.81;5170192;28;20022;-73
2023/09/05 10:07:50;;;;;;;3.80;1.92;;;;;;;38.13;25.16;101835.78;5171533;28;20147;-73
2023/09/05 10:10:22;;;;;;;5.72;1.90;;;;;;;38.99;25.80;101832.53;5171302;28;20026;-72
2023/09/05 10:12:56;;;;;;;6.15;2.42;;;;;;;39.95;24.00;101830.91;5172037;28;20030;-72
2023/09/05 10:15:30;;;;;;;4.47;2.00;;;;;;;39.27;25.51;101827.00;5171282;28;20101;-72
2023/09/05 10:18:02;;;;;;;6.18;2.33;;;;;;;39.54;24.60;101824.13;5170122;28;20054;-73
2023/09/05 10:20:34;;;;;;;4.32;1.80;;;;;;;39.78;24.30;101811.94;5171340;28;20062;-72
2023/09/05 10:23:06;;;;;;;4.93;1.92;;;;;;;41.08;22.82;101817.59;5171594;28;20437;-73
2023/09/05 10:25:40;;;;;;;4.57;1.88;;;;;;;40.12;23.95;101825.22;5171678;28;20027;-73
2023/09/05 10:28:11;;;;;;;5.78;1.73;;;;;;;39.85;24.48;101822.63;5170621;28;20035;-73
2023/09/05 10:30:46;;;;;;;7.17;1.90;;;;;;;39.59;25.20;101819.75;5170865;28;20029;-72
2023/09/05 10:33:31;;;;;;;3.53;1.67;;;;;;;40.73;23.64;101820.06;5170587;28;20038;-73
2023/09/05 10:36:04;;;;;;;4.28;2.00;;;;;;;39.91;22.98;101822.38;5170978;28;20033;-73
2023/09/05 10:38:38;;;;;;;;;;;;;;;41.51;22.37;101815.59;5171309;28;20074;-73
2023/09/05 10:41:36;;;;;;;5.60;1.67;;;;;;;40.50;23.63;101811.25;5171098;28;20428;-73
2023/09/05 10:44:08;;;;;;;3.80;1.48;;;;;;;39.87;22.85;101817.72;5170932;28;20105;-73
2023/09/05 10:46:39;;;;;;;5.30;1.53;;;;;;;40.39;23.00;101815.91;5170410;28;20033;-73
2023/09/05 10:49:15;;;;;;;8.32;1.73;;;;;;;40.22;23.14;101815.38;5170750;28;20058;-73
2023/09/05 10:52:14;;;;;;;5.22;1.60;;;;;;;40.19;23.99;101818.63;5171167;28;20066;-72
2023/09/05 10:54:46;;;;;;;7.00;1.83;;;;;;;39.55;23.39;101798.34;5168245;28;20038;-71
2023/09/05 10:57:37;;;;;;;3.00;1.73;;;;;;;38.61;26.17;101796.91;5171003;28;20027;-72
2023/09/05 11:00:18;;;;;;;3.50;1.73;;;;;;;38.11;25.40;101799.66;5170315;28;20051;-71
2023/09/05 11:02:49;;;;;;;3.60;1.65;;;;;;;37.73;25.59;101802.22;5165856;28;20061;-71
2023/09/05 11:05:25;;;;;;;5.93;1.60;;;;;;;37.39;26.84;101793.03;5174645;28;20485;-71
2023/09/05 11:07:58;;;;;;;4.22;1.55;;;;;;;37.19;28.08;101798.19;5174250;28;20031;-70
2023/09/05 11:10:34;;;;;;;7.22;1.95;;;;;;;36.24;28.05;101797.66;5183458;28;20037;-70
2023/09/05 11:13:11;;;;;;;5.85;1.75;;;;;;;36.87;26.91;101789.50;5174818;28;20050;-71
2023/09/05 11:15:46;;;;;;;4.70;1.83;;;;;;;36.49;27.52;101786.41;5156991;28;20027;-71
2023/09/05 11:18:19;;;;;;;4.13;1.70;;;;;;;37.23;27.11;101791.94;5154402;28;20070;-71
2023/09/05 11:20:50;;;;;;;4.47;1.58;;;;;;;35.68;28.95;101791.63;5153772;28;20490;-73
2023/09/05 11:23:28;;;;;;;4.73;1.90;;;;;;;35.43;30.26;101791.91;5154265;28;20023;-71
2023/09/05 11:26:06;;;;;;;6.65;2.40;;;;;;;35.44;30.26;101794.38;5160645;28;20033;-68
2023/09/05 11:28:38;;;;;;;3.10;1.80;;;;;;;35.52;30.35;101793.16;5174698;28;20085;-69
2023/09/05 11:31:11;;;;;;;5.87;2.00;;;;;;;35.46;30.35;101781.34;5172167;28;20035;-70
2023/09/05 11:33:44;;;;;;;6.22;1.92;;;;;;;35.74;28.08;101789.84;5167766;28;20117;-70
2023/09/05 11:36:16;;;;;;;2.72;1.75;;;;;;;34.95;29.75;101778.25;5169996;28;20023;-70
2023/09/05 11:38:49;;;;;;;3.25;1.23;;;;;;;35.67;29.12;101783.69;5167305;28;20055;-70
2023/09/05 11:41:21;;;;;;;4.60;2.42;;;;;;;35.56;29.00;101771.75;5172881;28;20031;-71
2023/09/05 11:43:54;;;;;;;4.47;1.55;;;;;;;34.87;31.44;101777.53;5166092;28;20022;-71
2023/09/05 11:46:26;;;;;;;5.63;1.88;;;;;;;34.61;31.54;101765.16;5192809;28;20129;-70
2023/09/05 11:48:58;;;;;;;4.95;1.73;;;;;;;34.85;31.58;101762.50;5193169;28;20030;-70
2023/09/05 11:51:30;;;;;;;5.63;1.60;;;;;;;35.18;30.13;101766.56;5173845;28;20038;-70
2023/09/05 11:54:01;;;;;;;5.82;1.70;;;;;;;35.38;29.80;101757.22;5187786;28;20033;-71
2023/09/05 11:56:32;;;;;;;3.55;2.05;;;;;;;35.62;29.59;101756.34;5190602;28;20041;-71